Airfield :
LOGIN :

Register | Disclaimer

   EN    FR    IT 

 










Legend :    VFR   Marginal VFR   IFR   Intensive IFR   Very Intensive IFR
Visi :
Ceiling :
>= 8 km
>= 3000ft
5 to 8 km
1000 to 3000 ft
1500m to 5 km
500 to 1000 ft
800 to 1500m
200 to 500 ft
< 800m
< 200 ft
Symbols :   Thunderstorms  Fog  Heavy snow  Heavy precipitations  Wind > 20 kt
SIGMETs :     Misc.  Thunderstorms  Icing  Turbulence  Mountain Waves  Volcanic Ashes






- Airport Elevation : 1071 ft
- IATA code : LWO


UKLL - L'viv

CURRENT METAR :
  • 061100Z 24005MPS 210V270 CAVOK 05/M03 Q1017 R31/810570 NOSIG

EXPIRED METARs :
  • 061030Z 25004MPS CAVOK 05/M04 Q1017 R31/810570 NOSIG
  • 061000Z 25003MPS 220V280 CAVOK 04/M04 Q1017 R31/810570 NOSIG
  • 060930Z 24003MPS CAVOK 04/M03 Q1018 R31/810570 NOSIG
  • 060900Z 26003MPS CAVOK 03/M05 Q1018 R31/810570 NOSIG
  • 060830Z 26004MPS 230V310 CAVOK 03/M05 Q1019 R31/810570 NOSIG

TAF TAF UKLL
Valid from the 06 at 06:00 until the 07 at 06:00 UTC


060502Z 0606/0706 23004MPS 9999 BKN020 TX04/0612Z TNM05/0606Z
BECMG 0620/0622 20003MPS
TEMPO 0622/0706 2100 BR BKN007



MET'MAP, your aeronautical weather chart ! - Copyright ORBIFLY December 2007 - Disclaimer

ORBIFLY MET'MAP TEAM :

Programming & Development : Alexandra Zaïnal
Concept & original design : Baudouin d'Aumeries
Assistance for programming : Marc-Olivier Méhu
Technical & hardware support : Manuel Goepfert

Contact : metmap@orbifly.com




SOURCES & CREDITS :

   NOAA